sensor_id;sensor_type;location;lat;lon;timestamp;P1;durP1;ratioP1;P2;durP2;ratioP2
56419;SDS011;42323;52.170;7.538;2023-01-08T00:01:14;3.13;;;2.00;;
56419;SDS011;42323;52.170;7.538;2023-01-08T00:03:41;3.05;;;2.35;;
56419;SDS011;42323;52.170;7.538;2023-01-08T00:06:12;2.90;;;2.20;;
56419;SDS011;42323;52.170;7.538;2023-01-08T00:08:41;2.17;;;1.73;;
56419;SDS011;42323;52.170;7.538;2023-01-08T00:11:08;3.08;;;2.05;;
56419;SDS011;42323;52.170;7.538;2023-01-08T00:13:36;3.85;;;1.73;;
56419;SDS011;42323;52.170;7.538;2023-01-08T00:16:07;2.55;;;2.00;;
56419;SDS011;42323;52.170;7.538;2023-01-08T00:18:36;3.47;;;2.30;;
56419;SDS011;42323;52.170;7.538;2023-01-08T00:21:03;3.00;;;2.17;;
56419;SDS011;42323;52.170;7.538;2023-01-08T00:23:30;3.20;;;2.25;;
56419;SDS011;42323;52.170;7.538;2023-01-08T00:25:59;2.90;;;1.90;;
56419;SDS011;42323;52.170;7.538;2023-01-08T00:28:31;4.63;;;1.90;;
56419;SDS011;42323;52.170;7.538;2023-01-08T00:30:58;3.58;;;1.80;;
56419;SDS011;42323;52.170;7.538;2023-01-08T00:33:27;2.80;;;1.90;;
56419;SDS011;42323;52.170;7.538;2023-01-08T00:35:54;3.55;;;2.20;;
56419;SDS011;42323;52.170;7.538;2023-01-08T00:38:25;2.08;;;1.67;;
56419;SDS011;42323;52.170;7.538;2023-01-08T00:40:52;2.17;;;1.85;;
56419;SDS011;42323;52.170;7.538;2023-01-08T00:43:19;3.83;;;2.20;;
56419;SDS011;42323;52.170;7.538;2023-01-08T00:45:46;2.53;;;1.98;;
56419;SDS011;42323;52.170;7.538;2023-01-08T00:48:13;3.25;;;1.75;;
56419;SDS011;42323;52.170;7.538;2023-01-08T00:50:40;4.63;;;2.00;;
56419;SDS011;42323;52.170;7.538;2023-01-08T00:53:07;3.08;;;2.05;;
56419;SDS011;42323;52.170;7.538;2023-01-08T00:55:33;3.25;;;2.03;;
56419;SDS011;42323;52.170;7.538;2023-01-08T00:58:00;3.00;;;1.88;;
56419;SDS011;42323;52.170;7.538;2023-01-08T01:00:27;2.95;;;2.00;;
56419;SDS011;42323;52.170;7.538;2023-01-08T01:02:54;3.97;;;1.85;;
56419;SDS011;42323;52.170;7.538;2023-01-08T01:05:21;2.75;;;2.08;;
56419;SDS011;42323;52.170;7.538;2023-01-08T01:07:47;2.60;;;1.83;;
56419;SDS011;42323;52.170;7.538;2023-01-08T01:10:14;2.65;;;2.03;;
56419;SDS011;42323;52.170;7.538;2023-01-08T01:12:42;4.05;;;2.42;;
56419;SDS011;42323;52.170;7.538;2023-01-08T01:15:10;2.97;;;1.90;;
56419;SDS011;42323;52.170;7.538;2023-01-08T01:17:40;2.28;;;1.90;;
56419;SDS011;42323;52.170;7.538;2023-01-08T01:20:08;2.97;;;2.08;;
56419;SDS011;42323;52.170;7.538;2023-01-08T01:22:37;3.15;;;2.08;;
56419;SDS011;42323;52.170;7.538;2023-01-08T01:25:04;7.07;;;2.00;;
56419;SDS011;42323;52.170;7.538;2023-01-08T01:27:31;2.53;;;1.77;;
56419;SDS011;42323;52.170;7.538;2023-01-08T01:29:58;3.03;;;2.17;;
56419;SDS011;42323;52.170;7.538;2023-01-08T01:32:25;2.17;;;1.85;;
56419;SDS011;42323;52.170;7.538;2023-01-08T01:34:52;2.15;;;1.77;;
56419;SDS011;42323;52.170;7.538;2023-01-08T01:37:19;2.42;;;1.70;;
56419;SDS011;42323;52.170;7.538;2023-01-08T01:39:45;1.95;;;1.70;;
56419;SDS011;42323;52.170;7.538;2023-01-08T01:42:13;2.25;;;1.77;;
56419;SDS011;42323;52.170;7.538;2023-01-08T01:45:03;4.13;;;1.73;;
56419;SDS011;42323;52.170;7.538;2023-01-08T01:47:39;2.17;;;1.58;;
56419;SDS011;42323;52.170;7.538;2023-01-08T01:55:21;3.53;;;1.60;;
56419;SDS011;42323;52.170;7.538;2023-01-08T01:57:50;1.90;;;1.40;;
56419;SDS011;42323;52.170;7.538;2023-01-08T02:00:24;2.33;;;1.80;;
56419;SDS011;42323;52.170;7.538;2023-01-08T02:02:52;2.58;;;1.63;;
56419;SDS011;42323;52.170;7.538;2023-01-08T02:05:21;3.90;;;1.80;;
56419;SDS011;42323;52.170;7.538;2023-01-08T02:07:57;2.05;;;1.55;;
56419;SDS011;42323;52.170;7.538;2023-01-08T02:13:13;2.53;;;1.77;;
56419;SDS011;42323;52.170;7.538;2023-01-08T02:15:57;2.50;;;1.90;;
56419;SDS011;42323;52.170;7.538;2023-01-08T02:18:39;3.15;;;1.75;;
56419;SDS011;42323;52.170;7.538;2023-01-08T02:21:09;2.33;;;1.70;;
56419;SDS011;42323;52.170;7.538;2023-01-08T02:23:52;4.53;;;2.00;;
56419;SDS011;42323;52.170;7.538;2023-01-08T02:26:29;2.03;;;1.63;;
56419;SDS011;42323;52.170;7.538;2023-01-08T02:29:07;2.78;;;2.10;;
56419;SDS011;42323;52.170;7.538;2023-01-08T02:31:37;2.92;;;1.98;;
56419;SDS011;42323;52.170;7.538;2023-01-08T02:34:06;2.10;;;1.77;;
56419;SDS011;42323;52.170;7.538;2023-01-08T02:36:47;2.30;;;1.80;;
56419;SDS011;42323;52.170;7.538;2023-01-08T02:42:04;2.22;;;1.60;;
56419;SDS011;42323;52.170;7.538;2023-01-08T02:47:53;3.10;;;2.20;;
56419;SDS011;42323;52.170;7.538;2023-01-08T02:50:30;2.80;;;2.00;;
56419;SDS011;42323;52.170;7.538;2023-01-08T02:55:54;3.50;;;1.83;;
56419;SDS011;42323;52.170;7.538;2023-01-08T02:58:28;2.45;;;2.08;;
56419;SDS011;42323;52.170;7.538;2023-01-08T03:00:58;3.47;;;2.03;;
56419;SDS011;42323;52.170;7.538;2023-01-08T03:03:28;3.45;;;1.73;;
56419;SDS011;42323;52.170;7.538;2023-01-08T03:05:57;2.45;;;2.17;;
56419;SDS011;42323;52.170;7.538;2023-01-08T03:08:27;2.35;;;1.55;;
56419;SDS011;42323;52.170;7.538;2023-01-08T03:10:55;3.65;;;1.90;;
56419;SDS011;42323;52.170;7.538;2023-01-08T03:16:33;2.58;;;1.80;;
56419;SDS011;42323;52.170;7.538;2023-01-08T03:19:17;3.92;;;1.98;;
56419;SDS011;42323;52.170;7.538;2023-01-08T03:21:47;2.13;;;1.73;;
56419;SDS011;42323;52.170;7.538;2023-01-08T03:24:17;2.75;;;1.83;;
56419;SDS011;42323;52.170;7.538;2023-01-08T03:26:47;2.70;;;2.40;;
56419;SDS011;42323;52.170;7.538;2023-01-08T03:29:17;2.17;;;1.92;;
56419;SDS011;42323;52.170;7.538;2023-01-08T03:31:50;2.30;;;1.83;;
56419;SDS011;42323;52.170;7.538;2023-01-08T03:34:21;3.88;;;2.30;;
56419;SDS011;42323;52.170;7.538;2023-01-08T03:36:51;2.35;;;1.75;;
56419;SDS011;42323;52.170;7.538;2023-01-08T03:39:27;3.33;;;2.00;;
56419;SDS011;42323;52.170;7.538;2023-01-08T03:41:59;2.90;;;1.80;;
56419;SDS011;42323;52.170;7.538;2023-01-08T03:44:30;3.05;;;2.10;;
56419;SDS011;42323;52.170;7.538;2023-01-08T03:46:56;1.95;;;1.63;;
56419;SDS011;42323;52.170;7.538;2023-01-08T03:49:24;4.07;;;1.73;;
56419;SDS011;42323;52.170;7.538;2023-01-08T03:51:53;2.70;;;2.00;;
56419;SDS011;42323;52.170;7.538;2023-01-08T03:54:22;2.70;;;2.10;;
56419;SDS011;42323;52.170;7.538;2023-01-08T03:56:52;3.67;;;2.10;;
56419;SDS011;42323;52.170;7.538;2023-01-08T03:59:19;2.72;;;1.80;;
56419;SDS011;42323;52.170;7.538;2023-01-08T04:01:46;2.38;;;1.70;;
56419;SDS011;42323;52.170;7.538;2023-01-08T04:04:12;3.00;;;1.83;;
56419;SDS011;42323;52.170;7.538;2023-01-08T04:06:39;2.67;;;1.73;;
56419;SDS011;42323;52.170;7.538;2023-01-08T04:09:06;4.82;;;1.92;;
56419;SDS011;42323;52.170;7.538;2023-01-08T04:11:33;2.83;;;1.85;;
56419;SDS011;42323;52.170;7.538;2023-01-08T04:14:00;3.75;;;1.90;;
56419;SDS011;42323;52.170;7.538;2023-01-08T04:16:27;2.58;;;1.80;;
56419;SDS011;42323;52.170;7.538;2023-01-08T04:18:53;2.67;;;1.90;;
56419;SDS011;42323;52.170;7.538;2023-01-08T04:21:20;2.42;;;1.85;;
56419;SDS011;42323;52.170;7.538;2023-01-08T04:23:47;3.08;;;2.08;;
56419;SDS011;42323;52.170;7.538;2023-01-08T04:26:13;2.75;;;1.67;;
56419;SDS011;42323;52.170;7.538;2023-01-08T04:28:40;2.08;;;1.80;;
56419;SDS011;42323;52.170;7.538;2023-01-08T04:31:07;2.88;;;1.92;;
56419;SDS011;42323;52.170;7.538;2023-01-08T04:33:35;2.58;;;2.08;;
56419;SDS011;42323;52.170;7.538;2023-01-08T04:36:02;2.75;;;1.80;;
56419;SDS011;42323;52.170;7.538;2023-01-08T04:38:30;3.70;;;1.85;;
56419;SDS011;42323;52.170;7.538;2023-01-08T04:41:00;4.82;;;1.77;;
56419;SDS011;42323;52.170;7.538;2023-01-08T04:43:28;2.88;;;2.22;;
56419;SDS011;42323;52.170;7.538;2023-01-08T04:45:59;3.78;;;2.08;;
56419;SDS011;42323;52.170;7.538;2023-01-08T04:48:27;3.42;;;1.90;;
56419;SDS011;42323;52.170;7.538;2023-01-08T04:50:58;4.03;;;2.03;;
56419;SDS011;42323;52.170;7.538;2023-01-08T04:53:26;2.00;;;1.60;;
56419;SDS011;42323;52.170;7.538;2023-01-08T04:55:53;4.22;;;1.42;;
56419;SDS011;42323;52.170;7.538;2023-01-08T04:58:20;3.63;;;1.80;;
56419;SDS011;42323;52.170;7.538;2023-01-08T05:00:47;3.03;;;1.48;;
56419;SDS011;42323;52.170;7.538;2023-01-08T05:03:13;2.60;;;1.60;;
56419;SDS011;42323;52.170;7.538;2023-01-08T05:05:40;2.85;;;1.80;;
56419;SDS011;42323;52.170;7.538;2023-01-08T05:08:07;2.58;;;1.60;;
56419;SDS011;42323;52.170;7.538;2023-01-08T05:10:34;2.25;;;1.67;;
56419;SDS011;42323;52.170;7.538;2023-01-08T05:13:00;2.15;;;1.77;;
56419;SDS011;42323;52.170;7.538;2023-01-08T05:15:27;2.50;;;1.92;;
56419;SDS011;42323;52.170;7.538;2023-01-08T05:18:01;2.97;;;1.70;;
56419;SDS011;42323;52.170;7.538;2023-01-08T05:20:30;2.22;;;1.77;;
56419;SDS011;42323;52.170;7.538;2023-01-08T05:22:58;4.10;;;1.55;;
56419;SDS011;42323;52.170;7.538;2023-01-08T05:25:24;3.00;;;2.17;;
56419;SDS011;42323;52.170;7.538;2023-01-08T05:27:54;2.45;;;1.52;;
56419;SDS011;42323;52.170;7.538;2023-01-08T05:30:20;2.78;;;1.90;;
56419;SDS011;42323;52.170;7.538;2023-01-08T05:32:47;1.95;;;1.50;;
56419;SDS011;42323;52.170;7.538;2023-01-08T05:35:14;2.88;;;2.03;;
56419;SDS011;42323;52.170;7.538;2023-01-08T05:37:40;1.95;;;1.73;;
56419;SDS011;42323;52.170;7.538;2023-01-08T05:40:07;3.67;;;2.10;;
56419;SDS011;42323;52.170;7.538;2023-01-08T05:42:34;2.22;;;1.67;;
56419;SDS011;42323;52.170;7.538;2023-01-08T05:45:02;2.13;;;1.73;;
56419;SDS011;42323;52.170;7.538;2023-01-08T05:47:31;2.67;;;1.92;;
56419;SDS011;42323;52.170;7.538;2023-01-08T05:49:58;7.20;;;2.40;;
56419;SDS011;42323;52.170;7.538;2023-01-08T05:52:25;3.95;;;1.95;;
56419;SDS011;42323;52.170;7.538;2023-01-08T05:54:53;2.38;;;1.70;;
56419;SDS011;42323;52.170;7.538;2023-01-08T05:57:19;2.95;;;1.73;;
56419;SDS011;42323;52.170;7.538;2023-01-08T05:59:46;2.40;;;1.75;;
56419;SDS011;42323;52.170;7.538;2023-01-08T06:02:13;2.33;;;1.70;;
56419;SDS011;42323;52.170;7.538;2023-01-08T06:04:40;3.50;;;2.22;;
56419;SDS011;42323;52.170;7.538;2023-01-08T06:07:07;2.80;;;1.63;;
56419;SDS011;42323;52.170;7.538;2023-01-08T06:09:33;2.67;;;1.83;;
56419;SDS011;42323;52.170;7.538;2023-01-08T06:12:00;2.88;;;1.92;;
56419;SDS011;42323;52.170;7.538;2023-01-08T06:14:27;3.17;;;1.75;;
56419;SDS011;42323;52.170;7.538;2023-01-08T06:16:54;2.72;;;2.08;;
56419;SDS011;42323;52.170;7.538;2023-01-08T06:19:20;6.43;;;2.30;;
56419;SDS011;42323;52.170;7.538;2023-01-08T06:21:47;2.88;;;2.53;;
56419;SDS011;42323;52.170;7.538;2023-01-08T06:24:14;3.10;;;2.33;;
56419;SDS011;42323;52.170;7.538;2023-01-08T06:26:41;3.45;;;2.60;;
56419;SDS011;42323;52.170;7.538;2023-01-08T06:29:08;3.95;;;2.97;;
56419;SDS011;42323;52.170;7.538;2023-01-08T06:31:35;3.70;;;2.22;;
56419;SDS011;42323;52.170;7.538;2023-01-08T06:34:01;4.78;;;2.60;;
56419;SDS011;42323;52.170;7.538;2023-01-08T06:36:28;4.88;;;2.85;;
56419;SDS011;42323;52.170;7.538;2023-01-08T06:38:55;3.42;;;2.38;;
56419;SDS011;42323;52.170;7.538;2023-01-08T06:41:22;3.17;;;2.17;;
56419;SDS011;42323;52.170;7.538;2023-01-08T06:43:48;3.63;;;2.33;;
56419;SDS011;42323;52.170;7.538;2023-01-08T06:46:15;3.30;;;2.65;;
56419;SDS011;42323;52.170;7.538;2023-01-08T06:48:42;5.43;;;2.75;;
56419;SDS011;42323;52.170;7.538;2023-01-08T06:51:09;4.30;;;3.00;;
56419;SDS011;42323;52.170;7.538;2023-01-08T06:53:35;4.80;;;2.80;;
56419;SDS011;42323;52.170;7.538;2023-01-08T06:56:03;4.40;;;2.95;;
56419;SDS011;42323;52.170;7.538;2023-01-08T06:58:30;3.55;;;2.50;;
56419;SDS011;42323;52.170;7.538;2023-01-08T07:00:56;4.40;;;2.53;;
56419;SDS011;42323;52.170;7.538;2023-01-08T07:03:24;5.13;;;2.55;;
56419;SDS011;42323;52.170;7.538;2023-01-08T07:05:51;3.28;;;2.30;;
56419;SDS011;42323;52.170;7.538;2023-01-08T07:08:18;3.50;;;2.40;;
56419;SDS011;42323;52.170;7.538;2023-01-08T07:10:45;2.40;;;2.17;;
56419;SDS011;42323;52.170;7.538;2023-01-08T07:13:15;5.47;;;2.38;;
56419;SDS011;42323;52.170;7.538;2023-01-08T07:15:43;3.38;;;2.60;;
56419;SDS011;42323;52.170;7.538;2023-01-08T07:18:10;3.53;;;2.30;;
56419;SDS011;42323;52.170;7.538;2023-01-08T07:20:37;2.65;;;2.20;;
56419;SDS011;42323;52.170;7.538;2023-01-08T07:23:08;2.45;;;1.80;;
56419;SDS011;42323;52.170;7.538;2023-01-08T07:25:37;3.40;;;1.90;;
56419;SDS011;42323;52.170;7.538;2023-01-08T07:28:04;1.90;;;1.58;;
56419;SDS011;42323;52.170;7.538;2023-01-08T07:30:31;4.00;;;1.77;;
56419;SDS011;42323;52.170;7.538;2023-01-08T07:32:58;3.70;;;1.60;;
56419;SDS011;42323;52.170;7.538;2023-01-08T07:35:28;3.55;;;1.30;;
56419;SDS011;42323;52.170;7.538;2023-01-08T07:37:55;2.10;;;1.50;;
56419;SDS011;42323;52.170;7.538;2023-01-08T07:40:22;2.08;;;1.38;;
56419;SDS011;42323;52.170;7.538;2023-01-08T07:42:59;2.75;;;1.40;;
56419;SDS011;42323;52.170;7.538;2023-01-08T07:45:30;2.65;;;1.73;;
56419;SDS011;42323;52.170;7.538;2023-01-08T07:47:57;1.67;;;1.40;;
56419;SDS011;42323;52.170;7.538;2023-01-08T07:50:24;2.08;;;1.80;;
56419;SDS011;42323;52.170;7.538;2023-01-08T07:52:55;3.28;;;1.50;;
56419;SDS011;42323;52.170;7.538;2023-01-08T07:55:22;1.77;;;1.40;;
56419;SDS011;42323;52.170;7.538;2023-01-08T07:57:49;1.92;;;1.58;;
56419;SDS011;42323;52.170;7.538;2023-01-08T08:00:19;1.75;;;1.65;;
56419;SDS011;42323;52.170;7.538;2023-01-08T08:02:45;1.83;;;1.70;;
56419;SDS011;42323;52.170;7.538;2023-01-08T08:05:12;3.72;;;1.90;;
56419;SDS011;42323;52.170;7.538;2023-01-08T08:07:39;2.35;;;1.73;;
56419;SDS011;42323;52.170;7.538;2023-01-08T08:10:06;3.60;;;2.35;;
56419;SDS011;42323;52.170;7.538;2023-01-08T08:12:34;3.42;;;1.70;;
56419;SDS011;42323;52.170;7.538;2023-01-08T08:15:01;2.08;;;1.67;;
56419;SDS011;42323;52.170;7.538;2023-01-08T08:17:28;2.97;;;2.22;;
56419;SDS011;42323;52.170;7.538;2023-01-08T08:19:54;2.28;;;2.08;;
56419;SDS011;42323;52.170;7.538;2023-01-08T08:22:21;3.80;;;2.60;;
56419;SDS011;42323;52.170;7.538;2023-01-08T08:24:48;3.55;;;2.10;;
56419;SDS011;42323;52.170;7.538;2023-01-08T08:27:14;3.63;;;1.83;;
56419;SDS011;42323;52.170;7.538;2023-01-08T08:29:41;2.20;;;1.90;;
56419;SDS011;42323;52.170;7.538;2023-01-08T08:32:08;3.47;;;2.20;;
56419;SDS011;42323;52.170;7.538;2023-01-08T08:34:35;3.30;;;2.40;;
56419;SDS011;42323;52.170;7.538;2023-01-08T08:37:01;2.60;;;2.10;;
56419;SDS011;42323;52.170;7.538;2023-01-08T08:39:28;2.70;;;2.10;;
56419;SDS011;42323;52.170;7.538;2023-01-08T08:41:55;2.88;;;2.28;;
56419;SDS011;42323;52.170;7.538;2023-01-08T08:44:25;3.00;;;2.40;;
56419;SDS011;42323;52.170;7.538;2023-01-08T08:46:52;3.00;;;2.17;;
56419;SDS011;42323;52.170;7.538;2023-01-08T08:49:19;2.70;;;2.15;;
56419;SDS011;42323;52.170;7.538;2023-01-08T08:51:46;2.30;;;2.10;;
56419;SDS011;42323;52.170;7.538;2023-01-08T08:54:12;2.22;;;1.90;;
56419;SDS011;42323;52.170;7.538;2023-01-08T08:56:39;2.08;;;1.85;;
56419;SDS011;42323;52.170;7.538;2023-01-08T08:59:06;2.75;;;2.00;;
56419;SDS011;42323;52.170;7.538;2023-01-08T09:01:34;1.95;;;1.75;;
56419;SDS011;42323;52.170;7.538;2023-01-08T09:04:03;1.60;;;1.50;;
56419;SDS011;42323;52.170;7.538;2023-01-08T09:06:30;2.40;;;1.80;;
56419;SDS011;42323;52.170;7.538;2023-01-08T09:08:57;3.75;;;1.70;;
56419;SDS011;42323;52.170;7.538;2023-01-08T09:11:25;2.85;;;1.52;;
56419;SDS011;42323;52.170;7.538;2023-01-08T09:13:52;1.45;;;1.27;;
56419;SDS011;42323;52.170;7.538;2023-01-08T09:16:18;3.42;;;1.75;;
56419;SDS011;42323;52.170;7.538;2023-01-08T09:18:46;1.90;;;1.50;;
56419;SDS011;42323;52.170;7.538;2023-01-08T09:21:14;1.40;;;1.30;;
56419;SDS011;42323;52.170;7.538;2023-01-08T09:23:41;2.88;;;1.30;;
56419;SDS011;42323;52.170;7.538;2023-01-08T09:26:08;2.67;;;1.20;;
56419;SDS011;42323;52.170;7.538;2023-01-08T09:28:35;1.25;;;1.10;;
56419;SDS011;42323;52.170;7.538;2023-01-08T09:31:02;3.58;;;1.20;;
56419;SDS011;42323;52.170;7.538;2023-01-08T09:33:29;1.90;;;1.30;;
56419;SDS011;42323;52.170;7.538;2023-01-08T09:35:56;2.92;;;1.33;;
56419;SDS011;42323;52.170;7.538;2023-01-08T09:38:23;1.25;;;1.13;;
56419;SDS011;42323;52.170;7.538;2023-01-08T09:43:49;2.00;;;1.27;;
56419;SDS011;42323;52.170;7.538;2023-01-08T09:46:18;4.22;;;1.33;;
56419;SDS011;42323;52.170;7.538;2023-01-08T09:48:48;1.98;;;1.20;;
56419;SDS011;42323;52.170;7.538;2023-01-08T09:51:18;2.45;;;1.45;;
56419;SDS011;42323;52.170;7.538;2023-01-08T09:53:47;1.75;;;1.20;;
56419;SDS011;42323;52.170;7.538;2023-01-08T09:56:20;3.58;;;1.20;;
56419;SDS011;42323;52.170;7.538;2023-01-08T09:58:47;1.42;;;1.23;;
56419;SDS011;42323;52.170;7.538;2023-01-08T10:01:17;3.92;;;1.42;;
56419;SDS011;42323;52.170;7.538;2023-01-08T10:03:49;1.75;;;1.27;;
56419;SDS011;42323;52.170;7.538;2023-01-08T10:06:21;3.67;;;1.20;;
56419;SDS011;42323;52.170;7.538;2023-01-08T10:08:49;1.80;;;1.30;;
56419;SDS011;42323;52.170;7.538;2023-01-08T10:11:17;2.60;;;1.60;;
56419;SDS011;42323;52.170;7.538;2023-01-08T10:13:51;5.18;;;1.60;;
56419;SDS011;42323;52.170;7.538;2023-01-08T10:16:27;5.63;;;3.50;;
56419;SDS011;42323;52.170;7.538;2023-01-08T10:19:02;6.30;;;2.35;;
56419;SDS011;42323;52.170;7.538;2023-01-08T10:21:30;3.85;;;1.30;;
56419;SDS011;42323;52.170;7.538;2023-01-08T10:24:01;4.95;;;1.40;;
56419;SDS011;42323;52.170;7.538;2023-01-08T10:26:29;4.10;;;1.42;;
56419;SDS011;42323;52.170;7.538;2023-01-08T10:29:14;5.75;;;1.58;;
56419;SDS011;42323;52.170;7.538;2023-01-08T10:31:50;3.50;;;1.40;;
56419;SDS011;42323;52.170;7.538;2023-01-08T10:34:27;7.97;;;1.98;;
56419;SDS011;42323;52.170;7.538;2023-01-08T10:36:59;5.28;;;2.50;;
56419;SDS011;42323;52.170;7.538;2023-01-08T10:39:26;9.63;;;3.60;;
56419;SDS011;42323;52.170;7.538;2023-01-08T10:41:56;3.92;;;1.63;;
56419;SDS011;42323;52.170;7.538;2023-01-08T10:44:29;2.60;;;1.30;;
56419;SDS011;42323;52.170;7.538;2023-01-08T10:46:58;6.07;;;1.50;;
56419;SDS011;42323;52.170;7.538;2023-01-08T10:49:28;3.17;;;1.25;;
56419;SDS011;42323;52.170;7.538;2023-01-08T10:51:59;4.50;;;1.88;;
56419;SDS011;42323;52.170;7.538;2023-01-08T10:54:28;6.68;;;2.75;;
56419;SDS011;42323;52.170;7.538;2023-01-08T10:56:56;3.75;;;1.65;;
56419;SDS011;42323;52.170;7.538;2023-01-08T10:59:25;5.65;;;1.40;;
56419;SDS011;42323;52.170;7.538;2023-01-08T11:01:55;4.43;;;1.95;;
56419;SDS011;42323;52.170;7.538;2023-01-08T11:04:30;4.88;;;1.60;;
56419;SDS011;42323;52.170;7.538;2023-01-08T11:07:01;5.55;;;1.45;;
56419;SDS011;42323;52.170;7.538;2023-01-08T11:09:32;1.67;;;1.23;;
56419;SDS011;42323;52.170;7.538;2023-01-08T11:12:03;5.05;;;1.60;;
56419;SDS011;42323;52.170;7.538;2023-01-08T11:14:31;4.13;;;1.40;;
56419;SDS011;42323;52.170;7.538;2023-01-08T11:17:09;3.40;;;1.73;;
56419;SDS011;42323;52.170;7.538;2023-01-08T11:19:36;4.85;;;2.15;;
56419;SDS011;42323;52.170;7.538;2023-01-08T11:22:16;3.47;;;1.70;;
56419;SDS011;42323;52.170;7.538;2023-01-08T11:24:44;5.88;;;1.80;;
56419;SDS011;42323;52.170;7.538;2023-01-08T11:27:17;4.75;;;1.80;;
56419;SDS011;42323;52.170;7.538;2023-01-08T11:30:12;9.57;;;1.58;;
56419;SDS011;42323;52.170;7.538;2023-01-08T11:33:06;7.60;;;1.77;;
56419;SDS011;42323;52.170;7.538;2023-01-08T11:35:39;5.55;;;1.58;;
56419;SDS011;42323;52.170;7.538;2023-01-08T11:38:11;5.60;;;1.80;;
56419;SDS011;42323;52.170;7.538;2023-01-08T11:40:40;3.35;;;1.45;;
56419;SDS011;42323;52.170;7.538;2023-01-08T12:03:10;3.42;;;1.45;;
56419;SDS011;42323;52.170;7.538;2023-01-08T12:05:30;4.10;;;1.70;;
56419;SDS011;42323;52.170;7.538;2023-01-08T12:11:12;3.17;;;1.30;;
56419;SDS011;42323;52.170;7.538;2023-01-08T12:14:05;5.43;;;1.58;;
56419;SDS011;42323;52.170;7.538;2023-01-08T12:35:53;3.13;;;1.30;;
56419;SDS011;42323;52.170;7.538;2023-01-08T12:41:00;3.50;;;1.27;;
56419;SDS011;42323;52.170;7.538;2023-01-08T12:43:36;4.13;;;1.90;;
56419;SDS011;42323;52.170;7.538;2023-01-08T12:46:13;7.03;;;1.95;;
56419;SDS011;42323;52.170;7.538;2023-01-08T12:48:43;3.75;;;1.77;;
56419;SDS011;42323;52.170;7.538;2023-01-08T12:51:15;3.70;;;1.55;;
56419;SDS011;42323;52.170;7.538;2023-01-08T13:03:03;4.10;;;1.38;;
56419;SDS011;42323;52.170;7.538;2023-01-08T13:05:33;2.45;;;1.23;;
56419;SDS011;42323;52.170;7.538;2023-01-08T13:08:02;2.97;;;1.20;;
56419;SDS011;42323;52.170;7.538;2023-01-08T13:10:37;4.10;;;1.30;;
56419;SDS011;42323;52.170;7.538;2023-01-08T13:13:24;7.20;;;1.73;;
56419;SDS011;42323;52.170;7.538;2023-01-08T13:29:47;4.65;;;1.70;;
56419;SDS011;42323;52.170;7.538;2023-01-08T13:35:28;6.53;;;2.10;;
56419;SDS011;42323;52.170;7.538;2023-01-08T13:38:11;4.63;;;2.00;;
56419;SDS011;42323;52.170;7.538;2023-01-08T13:46:27;2.70;;;1.88;;
56419;SDS011;42323;52.170;7.538;2023-01-08T13:48:59;3.60;;;1.80;;
56419;SDS011;42323;52.170;7.538;2023-01-08T13:51:38;4.07;;;1.65;;
56419;SDS011;42323;52.170;7.538;2023-01-08T13:54:18;3.13;;;1.98;;
56419;SDS011;42323;52.170;7.538;2023-01-08T13:56:51;6.55;;;3.33;;
56419;SDS011;42323;52.170;7.538;2023-01-08T13:59:33;4.43;;;2.10;;
56419;SDS011;42323;52.170;7.538;2023-01-08T14:02:01;1.95;;;1.60;;
56419;SDS011;42323;52.170;7.538;2023-01-08T14:04:30;1.77;;;1.60;;
56419;SDS011;42323;52.170;7.538;2023-01-08T14:07:09;2.65;;;1.70;;
56419;SDS011;42323;52.170;7.538;2023-01-08T14:09:45;1.80;;;1.70;;
56419;SDS011;42323;52.170;7.538;2023-01-08T14:12:22;3.67;;;1.58;;
56419;SDS011;42323;52.170;7.538;2023-01-08T14:15:14;4.20;;;1.80;;
56419;SDS011;42323;52.170;7.538;2023-01-08T14:44:21;2.93;;;1.67;;
56419;SDS011;42323;52.170;7.538;2023-01-08T14:55:47;3.13;;;1.30;;
56419;SDS011;42323;52.170;7.538;2023-01-08T14:58:44;3.45;;;1.80;;
56419;SDS011;42323;52.170;7.538;2023-01-08T15:01:59;2.10;;;1.45;;
56419;SDS011;42323;52.170;7.538;2023-01-08T15:09:14;3.25;;;1.23;;
56419;SDS011;42323;52.170;7.538;2023-01-08T15:12:20;3.95;;;1.40;;
56419;SDS011;42323;52.170;7.538;2023-01-08T15:15:31;2.55;;;1.83;;
56419;SDS011;42323;52.170;7.538;2023-01-08T15:18:13;3.00;;;2.45;;
56419;SDS011;42323;52.170;7.538;2023-01-08T15:20:51;2.58;;;1.90;;
56419;SDS011;42323;52.170;7.538;2023-01-08T15:23:41;2.17;;;1.80;;
56419;SDS011;42323;52.170;7.538;2023-01-08T15:26:24;3.63;;;2.43;;
56419;SDS011;42323;52.170;7.538;2023-01-08T15:32:31;4.55;;;2.10;;
56419;SDS011;42323;52.170;7.538;2023-01-08T15:35:14;4.45;;;2.22;;
56419;SDS011;42323;52.170;7.538;2023-01-08T15:37:42;3.58;;;2.45;;
56419;SDS011;42323;52.170;7.538;2023-01-08T15:40:10;3.75;;;2.33;;
56419;SDS011;42323;52.170;7.538;2023-01-08T15:42:38;3.70;;;2.65;;
56419;SDS011;42323;52.170;7.538;2023-01-08T15:45:28;3.08;;;2.10;;
56419;SDS011;42323;52.170;7.538;2023-01-08T15:48:00;3.33;;;2.38;;
56419;SDS011;42323;52.170;7.538;2023-01-08T15:50:28;3.90;;;2.20;;
56419;SDS011;42323;52.170;7.538;2023-01-08T15:52:58;3.13;;;2.13;;
56419;SDS011;42323;52.170;7.538;2023-01-08T15:55:26;4.20;;;2.28;;
56419;SDS011;42323;52.170;7.538;2023-01-08T15:57:56;2.83;;;2.28;;
56419;SDS011;42323;52.170;7.538;2023-01-08T16:00:23;5.22;;;2.63;;
56419;SDS011;42323;52.170;7.538;2023-01-08T16:02:51;2.95;;;2.50;;
56419;SDS011;42323;52.170;7.538;2023-01-08T16:05:21;3.65;;;2.00;;
56419;SDS011;42323;52.170;7.538;2023-01-08T16:07:49;3.00;;;2.40;;
56419;SDS011;42323;52.170;7.538;2023-01-08T16:10:21;3.08;;;2.58;;
56419;SDS011;42323;52.170;7.538;2023-01-08T16:12:53;3.40;;;2.67;;
56419;SDS011;42323;52.170;7.538;2023-01-08T16:19:01;3.50;;;2.38;;
56419;SDS011;42323;52.170;7.538;2023-01-08T16:21:59;4.43;;;2.90;;
56419;SDS011;42323;52.170;7.538;2023-01-08T16:24:51;2.63;;;1.98;;
56419;SDS011;42323;52.170;7.538;2023-01-08T16:31:35;2.47;;;1.90;;
56419;SDS011;42323;52.170;7.538;2023-01-08T16:35:09;2.28;;;1.83;;
56419;SDS011;42323;52.170;7.538;2023-01-08T16:37:58;4.75;;;2.00;;
56419;SDS011;42323;52.170;7.538;2023-01-08T16:41:04;2.28;;;1.85;;
56419;SDS011;42323;52.170;7.538;2023-01-08T16:44:01;3.40;;;1.85;;
56419;SDS011;42323;52.170;7.538;2023-01-08T16:47:01;3.70;;;1.90;;
56419;SDS011;42323;52.170;7.538;2023-01-08T16:49:41;2.90;;;1.50;;
56419;SDS011;42323;52.170;7.538;2023-01-08T16:52:28;3.40;;;1.80;;
56419;SDS011;42323;52.170;7.538;2023-01-08T16:55:00;6.45;;;1.98;;
56419;SDS011;42323;52.170;7.538;2023-01-08T16:57:47;2.28;;;2.08;;
56419;SDS011;42323;52.170;7.538;2023-01-08T17:00:20;2.35;;;2.10;;
56419;SDS011;42323;52.170;7.538;2023-01-08T17:02:52;3.13;;;2.10;;
56419;SDS011;42323;52.170;7.538;2023-01-08T17:05:36;2.67;;;2.20;;
56419;SDS011;42323;52.170;7.538;2023-01-08T17:08:28;3.28;;;2.55;;
56419;SDS011;42323;52.170;7.538;2023-01-08T17:11:11;2.55;;;1.95;;
56419;SDS011;42323;52.170;7.538;2023-01-08T17:13:56;3.53;;;2.58;;
56419;SDS011;42323;52.170;7.538;2023-01-08T17:16:40;3.40;;;2.10;;
56419;SDS011;42323;52.170;7.538;2023-01-08T17:19:24;3.17;;;2.05;;
56419;SDS011;42323;52.170;7.538;2023-01-08T17:22:59;2.80;;;2.13;;
56419;SDS011;42323;52.170;7.538;2023-01-08T17:25:46;3.75;;;2.60;;
56419;SDS011;42323;52.170;7.538;2023-01-08T17:28:39;3.92;;;2.70;;
56419;SDS011;42323;52.170;7.538;2023-01-08T17:31:30;5.35;;;2.60;;
56419;SDS011;42323;52.170;7.538;2023-01-08T17:34:33;5.88;;;3.20;;
56419;SDS011;42323;52.170;7.538;2023-01-08T17:37:29;4.25;;;3.28;;
56419;SDS011;42323;52.170;7.538;2023-01-08T17:40:18;5.40;;;3.60;;
56419;SDS011;42323;52.170;7.538;2023-01-08T17:50:00;7.22;;;3.28;;
56419;SDS011;42323;52.170;7.538;2023-01-08T17:53:11;4.78;;;3.78;;
56419;SDS011;42323;52.170;7.538;2023-01-08T17:56:11;5.78;;;3.67;;